Time;durP1;ratioP1;P1;durP2;ratioP2;P2;SDS_P1;SDS_P2;PMS_P1;PMS_P2;Temp;Humidity;BMP_temperature;BMP_pressure;BME280_temperature;BME280_humidity;BME280_pressure;Samples;Min_cycle;Max_cycle;Signal;HPM_P1;HPM_P2
2021/10/25 00:02:17;;;;;;;10.70;6.43;;;8.00;99.90;;;;;;5037069;28;20028;-66
2021/10/25 00:04:42;;;;;;;12.32;7.25;;;7.90;99.90;;;;;;5036350;28;20030;-65
2021/10/25 00:07:09;;;;;;;11.38;7.43;;;7.90;99.90;;;;;;5037069;28;20057;-66
2021/10/25 00:09:35;;;;;;;11.38;6.60;;;8.00;99.90;;;;;;5037594;28;20030;-66
2021/10/25 00:12:01;;;;;;;11.95;7.55;;;7.90;99.90;;;;;;5037620;28;20036;-66
2021/10/25 00:14:26;;;;;;;11.23;7.18;;;7.80;99.90;;;;;;5037072;28;20034;-66
2021/10/25 00:16:52;;;;;;;8.50;5.97;;;7.80;99.90;;;;;;5037289;28;20084;-65
2021/10/25 00:19:19;;;;;;;9.05;6.45;;;7.80;99.90;;;;;;5035688;28;20033;-66
2021/10/25 00:21:45;;;;;;;9.65;6.72;;;7.90;99.90;;;;;;5037640;28;20053;-66
2021/10/25 00:24:11;;;;;;;11.18;6.82;;;7.80;99.90;;;;;;5036905;28;20111;-67
2021/10/25 00:26:37;;;;;;;10.25;6.63;;;7.70;99.90;;;;;;5037181;28;20065;-66
2021/10/25 00:29:03;;;;;;;9.93;7.40;;;7.80;99.90;;;;;;5037556;28;20017;-66
2021/10/25 00:31:29;;;;;;;13.38;6.68;;;7.80;99.90;;;;;;5036802;28;20026;-66
2021/10/25 00:33:54;;;;;;;10.68;6.88;;;7.70;99.90;;;;;;5037369;28;20025;-66
2021/10/25 00:36:20;;;;;;;11.75;7.47;;;7.70;99.90;;;;;;5036443;28;20091;-66
2021/10/25 00:38:46;;;;;;;7.93;6.47;;;7.70;99.90;;;;;;5037142;28;20072;-66
2021/10/25 00:41:11;;;;;;;11.18;6.20;;;7.60;99.90;;;;;;5035302;28;20412;-67
2021/10/25 00:43:38;;;;;;;9.82;6.47;;;7.60;99.90;;;;;;5035861;28;20029;-66
2021/10/25 00:46:06;;;;;;;9.30;7.15;;;7.60;99.90;;;;;;5035891;28;20068;-66
2021/10/25 00:48:32;;;;;;;14.27;7.90;;;7.60;99.90;;;;;;5036581;28;20129;-65
2021/10/25 00:50:58;;;;;;;9.68;6.60;;;7.50;99.90;;;;;;5035540;28;20526;-66
2021/10/25 00:53:24;;;;;;;11.27;7.35;;;7.50;99.90;;;;;;5032669;28;20109;-66
2021/10/25 00:55:51;;;;;;;10.07;6.53;;;7.60;99.90;;;;;;5032345;28;20464;-65
2021/10/25 00:58:17;;;;;;;11.73;6.53;;;7.60;99.90;;;;;;5033196;28;20037;-65
2021/10/25 01:00:43;;;;;;;7.60;6.28;;;7.50;99.90;;;;;;5033782;28;20029;-66
2021/10/25 01:03:09;;;;;;;12.75;6.65;;;7.60;99.90;;;;;;5033672;28;20040;-78
2021/10/25 01:05:34;;;;;;;12.27;6.38;;;7.40;99.90;;;;;;5032432;28;20025;-66
2021/10/25 01:08:03;;;;;;;7.55;5.82;;;7.40;99.90;;;;;;5034064;28;20036;-66
2021/10/25 01:10:29;;;;;;;7.20;6.20;;;7.40;99.90;;;;;;5031775;28;20263;-66
2021/10/25 01:12:56;;;;;;;9.88;7.53;;;7.40;99.90;;;;;;5033518;28;20530;-66
2021/10/25 01:15:21;;;;;;;9.82;6.95;;;7.40;99.90;;;;;;5033175;28;20034;-66
2021/10/25 01:17:56;;;;;;;10.57;6.68;;;7.40;99.90;;;;;;5033333;28;20029;-66
2021/10/25 01:20:29;;;;;;;9.32;6.82;;;7.30;99.90;;;;;;5031859;28;20104;-66
2021/10/25 01:22:56;;;;;;;7.75;6.57;;;7.20;99.90;;;;;;5032357;28;20022;-66
2021/10/25 01:25:22;;;;;;;16.50;7.53;;;7.10;99.90;;;;;;5032929;28;20037;-67
2021/10/25 01:27:50;;;;;;;11.85;6.78;;;7.10;99.90;;;;;;5034318;28;20104;-66
2021/10/25 01:30:16;;;;;;;8.88;6.50;;;7.10;99.90;;;;;;5047834;28;20053;-66
2021/10/25 01:32:43;;;;;;;10.43;6.63;;;7.10;99.90;;;;;;5033233;28;20056;-66
2021/10/25 01:35:09;;;;;;;9.60;6.40;;;6.90;99.90;;;;;;5033875;28;20147;-65
2021/10/25 01:37:35;;;;;;;7.60;6.30;;;6.90;99.90;;;;;;5032666;28;20416;-66
2021/10/25 01:40:00;;;;;;;10.27;6.63;;;6.90;99.90;;;;;;5032730;28;20080;-67
2021/10/25 01:42:26;;;;;;;8.43;6.30;;;6.70;99.90;;;;;;5032451;28;20071;-67
2021/10/25 01:44:52;;;;;;;10.60;7.03;;;6.70;99.90;;;;;;5032956;28;20033;-67
2021/10/25 01:47:18;;;;;;;7.15;6.28;;;6.50;99.90;;;;;;5032398;28;20382;-67
2021/10/25 01:49:43;;;;;;;9.32;7.13;;;6.40;99.90;;;;;;5032599;28;20047;-67
2021/10/25 01:52:09;;;;;;;8.18;6.22;;;6.50;99.90;;;;;;5031392;28;20032;-67
2021/10/25 01:54:35;;;;;;;8.65;6.25;;;6.50;99.90;;;;;;5030592;28;20493;-66
2021/10/25 01:57:00;;;;;;;11.65;6.53;;;6.60;99.90;;;;;;5031357;28;20471;-66
2021/10/25 01:59:26;;;;;;;7.65;6.50;;;6.60;99.90;;;;;;5030967;28;20062;-67
2021/10/25 02:01:52;;;;;;;8.48;6.10;;;6.70;99.90;;;;;;5031453;28;20067;-66
2021/10/25 02:04:17;;;;;;;9.10;6.68;;;6.60;99.90;;;;;;5031470;28;20030;-65
2021/10/25 02:06:43;;;;;;;12.05;6.75;;;6.70;99.90;;;;;;5031567;28;20033;-66
2021/10/25 02:09:09;;;;;;;15.35;6.93;;;6.70;99.90;;;;;;5031200;28;20021;-65
2021/10/25 02:11:35;;;;;;;9.95;6.55;;;6.70;99.90;;;;;;5031950;28;20033;-65
2021/10/25 02:14:01;;;;;;;13.63;7.18;;;6.50;99.90;;;;;;5032551;28;20159;-66
2021/10/25 02:16:29;;;;;;;10.15;6.85;;;6.50;99.90;;;;;;5031690;28;20116;-66
2021/10/25 02:18:55;;;;;;;9.63;6.25;;;6.60;99.90;;;;;;5032052;28;20116;-65
2021/10/25 02:21:21;;;;;;;8.77;7.03;;;6.50;99.90;;;;;;5030332;28;20473;-67
2021/10/25 02:23:46;;;;;;;10.30;6.68;;;6.40;99.90;;;;;;5032224;28;20108;-66
2021/10/25 02:26:12;;;;;;;10.68;7.72;;;6.30;99.90;;;;;;5032015;28;20109;-67
2021/10/25 02:28:38;;;;;;;8.23;6.38;;;6.40;99.90;;;;;;5030255;28;20033;-66
2021/10/25 02:31:04;;;;;;;9.60;7.13;;;6.30;99.90;;;;;;5032018;28;20033;-66
2021/10/25 02:33:30;;;;;;;14.02;7.47;;;6.40;99.90;;;;;;5031677;28;20021;-66
2021/10/25 02:35:56;;;;;;;9.63;7.00;;;6.40;99.90;;;;;;5031945;28;20444;-68
2021/10/25 02:38:21;;;;;;;8.13;5.82;;;6.40;99.90;;;;;;5031315;28;20052;-67
2021/10/25 02:40:47;;;;;;;10.45;6.57;;;6.40;99.90;;;;;;5031609;28;20025;-65
2021/10/25 02:43:13;;;;;;;12.23;6.53;;;6.40;99.90;;;;;;5030642;28;20029;-67
2021/10/25 02:45:39;;;;;;;9.00;5.65;;;6.40;99.90;;;;;;5031681;28;20474;-67
2021/10/25 02:48:05;;;;;;;9.10;6.82;;;6.40;99.90;;;;;;5031937;28;20379;-66
2021/10/25 02:50:31;;;;;;;10.65;7.38;;;6.30;99.90;;;;;;5030957;28;20471;-65
2021/10/25 02:52:57;;;;;;;7.70;6.13;;;6.10;99.90;;;;;;5030444;28;20113;-65
2021/10/25 02:55:23;;;;;;;9.30;6.82;;;6.20;99.90;;;;;;5029687;28;20064;-66
2021/10/25 02:57:49;;;;;;;9.32;6.55;;;6.10;99.90;;;;;;5031360;28;20038;-66
2021/10/25 03:00:16;;;;;;;10.23;7.30;;;5.90;99.90;;;;;;5032024;28;20033;-66
2021/10/25 03:02:44;;;;;;;8.25;6.55;;;5.90;99.90;;;;;;5031698;28;20025;-66
2021/10/25 03:05:10;;;;;;;7.97;6.18;;;6.00;99.90;;;;;;5031759;28;20025;-66
2021/10/25 03:07:36;;;;;;;8.35;6.72;;;6.10;99.90;;;;;;5030951;28;20115;-66
2021/10/25 03:10:03;;;;;;;9.23;6.88;;;6.10;99.90;;;;;;5031597;28;20030;-65
2021/10/25 03:12:28;;;;;;;11.10;7.20;;;6.00;99.90;;;;;;5030778;28;20071;-65
2021/10/25 03:14:54;;;;;;;9.88;6.88;;;5.90;99.90;;;;;;5031484;28;20418;-66
2021/10/25 03:17:20;;;;;;;11.52;6.25;;;6.00;99.90;;;;;;5029193;28;20026;-66
2021/10/25 03:19:47;;;;;;;9.75;6.60;;;6.00;99.90;;;;;;5030052;28;20037;-66
2021/10/25 03:22:14;;;;;;;7.50;6.32;;;5.90;99.90;;;;;;5031097;28;20040;-66
2021/10/25 03:24:41;;;;;;;8.90;6.72;;;5.80;99.90;;;;;;5030566;28;20025;-66
2021/10/25 03:27:07;;;;;;;8.93;6.85;;;5.80;99.90;;;;;;5031295;28;20083;-66
2021/10/25 03:29:32;;;;;;;7.97;6.35;;;5.90;99.90;;;;;;5029366;28;20459;-66
2021/10/25 03:31:59;;;;;;;9.57;6.57;;;5.80;99.90;;;;;;5030060;28;20029;-66
2021/10/25 03:34:26;;;;;;;15.30;6.90;;;5.80;99.90;;;;;;5030712;28;20480;-66
2021/10/25 03:36:51;;;;;;;10.77;6.70;;;5.80;99.90;;;;;;5031418;28;20029;-66
2021/10/25 03:39:24;;;;;;;9.48;6.55;;;5.80;99.90;;;;;;5031195;28;20026;-78
2021/10/25 03:41:53;;;;;;;10.15;6.97;;;5.70;99.90;;;;;;5030117;28;20076;-66
2021/10/25 03:44:24;;;;;;;9.30;6.80;;;5.80;99.90;;;;;;5029259;28;20061;-77
2021/10/25 03:47:02;;;;;;;10.02;7.20;;;5.70;99.90;;;;;;5031073;28;20545;-66
2021/10/25 03:51:53;;;;;;;10.13;6.97;;;5.70;99.90;;;;;;5031412;28;20061;-66
2021/10/25 03:54:28;;;;;;;10.30;7.10;;;5.70;99.90;;;;;;5030492;28;20022;-70
2021/10/25 03:57:14;;;;;;;8.48;6.57;;;5.70;99.90;;;;;;5030856;28;20143;-66
2021/10/25 04:00:31;;;;;;;11.75;7.40;;;5.70;99.90;;;;;;5029410;28;20064;-67
2021/10/25 04:02:46;;;;;;;9.80;6.47;;;5.90;99.90;;;;;;5028973;28;20048;-67
2021/10/25 04:25:25;;;;;;;10.90;6.88;;;6.10;99.90;;;;;;5029994;28;20091;-66
2021/10/25 04:27:24;;;;;;;11.52;7.40;;;6.10;99.90;;;;;;5030440;28;20103;-66
2021/10/25 04:29:56;;;;;;;12.13;8.27;;;6.10;99.90;;;;;;5034591;28;20056;-66
2021/10/25 04:32:22;;;;;;;15.73;8.18;;;6.10;99.90;;;;;;5033659;28;20026;-66
2021/10/25 04:34:47;;;;;;;17.42;8.90;;;6.00;99.90;;;;;;5034032;28;20120;-66
2021/10/25 04:37:13;;;;;;;12.55;9.00;;;6.00;99.90;;;;;;5033912;28;20040;-67
2021/10/25 04:39:39;;;;;;;13.43;9.93;;;6.00;99.90;;;;;;5032446;28;20036;-66
2021/10/25 04:42:04;;;;;;;12.70;8.18;;;5.90;99.90;;;;;;5032586;28;20030;-67
2021/10/25 04:44:30;;;;;;;22.38;10.95;;;5.80;99.90;;;;;;5032251;28;20086;-66
2021/10/25 04:46:56;;;;;;;20.13;10.18;;;5.80;99.90;;;;;;5034298;28;20061;-66
2021/10/25 04:49:22;;;;;;;20.98;10.57;;;5.90;99.90;;;;;;5032540;28;20034;-78
2021/10/25 04:51:47;;;;;;;19.02;10.10;;;6.00;99.90;;;;;;5032932;28;20486;-65
2021/10/25 04:54:13;;;;;;;22.35;10.35;;;5.90;99.90;;;;;;5032483;28;20029;-66
2021/10/25 04:56:39;;;;;;;19.95;8.45;;;5.90;99.90;;;;;;5033342;28;20033;-66
2021/10/25 04:59:04;;;;;;;12.88;7.32;;;5.90;99.90;;;;;;5034308;28;20388;-67
2021/10/25 05:01:30;;;;;;;18.25;9.00;;;5.90;99.90;;;;;;5032019;28;20079;-66
2021/10/25 05:03:55;;;;;;;15.45;7.57;;;6.10;99.90;;;;;;5032999;28;20044;-66
2021/10/25 05:06:21;;;;;;;18.63;9.43;;;6.20;99.90;;;;;;5034145;28;20026;-70
2021/10/25 05:08:48;;;;;;;17.98;9.07;;;6.20;99.90;;;;;;5033690;28;20026;-67
2021/10/25 05:11:13;;;;;;;22.35;9.70;;;6.30;99.90;;;;;;5033547;28;20056;-67
2021/10/25 05:13:39;;;;;;;15.10;8.23;;;6.20;99.90;;;;;;5031803;28;20467;-66
2021/10/25 05:16:06;;;;;;;17.33;10.07;;;6.20;99.90;;;;;;5033846;28;20379;-66
2021/10/25 05:18:32;;;;;;;28.23;9.68;;;6.10;99.90;;;;;;5031528;28;20038;-66
2021/10/25 05:20:58;;;;;;;21.83;10.82;;;6.00;99.90;;;;;;5032584;28;20494;-66
2021/10/25 05:23:26;;;;;;;18.08;9.77;;;6.00;99.90;;;;;;5031631;28;20062;-78
2021/10/25 05:25:51;;;;;;;20.77;8.73;;;5.90;99.90;;;;;;5033960;28;20034;-70
2021/10/25 05:28:17;;;;;;;18.88;9.07;;;5.70;99.90;;;;;;5032225;28;20149;-66
2021/10/25 05:30:44;;;;;;;22.23;8.57;;;5.80;99.90;;;;;;5033174;28;20370;-66
2021/10/25 05:33:10;;;;;;;20.20;10.45;;;5.70;99.90;;;;;;5031665;28;20535;-67
2021/10/25 05:35:38;;;;;;;22.20;9.52;;;5.90;99.90;;;;;;5031160;28;20064;-65
2021/10/25 05:38:04;;;;;;;23.98;9.80;;;5.90;99.90;;;;;;5032215;28;20547;-66
2021/10/25 05:40:30;;;;;;;32.47;12.10;;;5.70;99.90;;;;;;5032217;28;20025;-67
2021/10/25 05:42:57;;;;;;;18.88;10.85;;;5.70;99.90;;;;;;5031408;28;20459;-66
2021/10/25 05:45:23;;;;;;;29.58;10.23;;;5.80;99.90;;;;;;5032654;28;20021;-66
2021/10/25 05:47:48;;;;;;;30.10;10.98;;;5.90;99.90;;;;;;5030559;28;20030;-66
2021/10/25 05:50:15;;;;;;;29.95;11.73;;;5.60;99.90;;;;;;5032585;28;20031;-66
2021/10/25 05:52:40;;;;;;;41.85;13.00;;;5.80;99.90;;;;;;5031809;28;20049;-67
2021/10/25 05:55:06;;;;;;;31.92;12.60;;;5.60;99.90;;;;;;5031135;28;20447;-66
2021/10/25 05:57:32;;;;;;;34.28;12.25;;;5.50;99.90;;;;;;5030737;28;20098;-66
2021/10/25 05:59:58;;;;;;;33.92;10.82;;;5.60;99.90;;;;;;5032722;28;20025;-67
2021/10/25 06:02:32;;;;;;;23.80;10.85;;;5.80;99.90;;;;;;5032371;28;20022;-67
2021/10/25 06:04:58;;;;;;;28.15;11.38;;;5.70;99.90;;;;;;5031246;28;20470;-67
2021/10/25 06:07:23;;;;;;;37.45;11.50;;;5.60;99.90;;;;;;5030724;28;20037;-67
2021/10/25 06:09:49;;;;;;;23.95;12.15;;;5.50;99.90;;;;;;5031396;28;20025;-67
2021/10/25 06:12:19;;;;;;;27.77;10.63;;;5.40;99.90;;;;;;5013828;28;20416;-67
2021/10/25 06:14:47;;;;;;;23.88;11.45;;;5.50;99.90;;;;;;5030530;28;20458;-66
2021/10/25 06:17:39;;;;;;;36.50;12.60;;;5.50;99.90;;;;;;5032183;28;20083;-67
2021/10/25 06:20:10;;;;;;;31.40;12.43;;;5.40;99.90;;;;;;5031809;28;20028;-67
2021/10/25 06:22:38;;;;;;;22.58;11.43;;;5.50;99.90;;;;;;5031506;28;20120;-66
2021/10/25 06:25:06;;;;;;;28.98;11.70;;;5.40;99.90;;;;;;5031563;28;20080;-66
2021/10/25 06:27:33;;;;;;;52.08;13.27;;;5.30;99.90;;;;;;5030980;28;20056;-67
2021/10/25 06:29:58;;;;;;;34.70;13.90;;;5.30;99.90;;;;;;5031891;28;20095;-67
2021/10/25 06:32:24;;;;;;;24.38;12.98;;;5.20;99.90;;;;;;5029851;28;20026;-67
2021/10/25 06:34:51;;;;;;;56.17;14.02;;;5.40;99.90;;;;;;5029905;28;20030;-67
2021/10/25 06:37:19;;;;;;;38.60;13.63;;;5.30;99.90;;;;;;5030303;28;20462;-67
2021/10/25 06:39:53;;;;;;;26.70;13.30;;;5.40;99.90;;;;;;5029742;28;20444;-66
2021/10/25 06:42:19;;;;;;;33.25;14.55;;;5.40;99.90;;;;;;5031985;28;20032;-65
2021/10/25 06:47:22;;;;;;;23.30;12.75;;;5.40;99.90;;;;;;5032133;28;20120;-65
2021/10/25 06:49:47;;;;;;;33.90;13.82;;;5.30;99.90;;;;;;5030661;28;20025;-66
2021/10/25 06:52:13;;;;;;;27.67;14.02;;;5.40;99.90;;;;;;5031401;28;20229;-66
2021/10/25 06:54:39;;;;;;;27.05;12.35;;;5.50;99.90;;;;;;5029541;28;20112;-67
2021/10/25 06:57:04;;;;;;;33.40;13.30;;;5.60;99.90;;;;;;5030345;28;20109;-67
2021/10/25 06:59:30;;;;;;;27.80;13.68;;;5.60;99.90;;;;;;5030812;28;20025;-70
2021/10/25 07:01:56;;;;;;;28.33;14.77;;;5.50;99.90;;;;;;5030285;28;20033;-66
2021/10/25 07:04:22;;;;;;;24.65;14.52;;;5.60;99.90;;;;;;5030263;28;20036;-67
2021/10/25 07:06:48;;;;;;;43.65;14.65;;;5.50;99.90;;;;;;5031356;28;20129;-66
2021/10/25 07:09:15;;;;;;;27.65;12.88;;;5.80;99.90;;;;;;5030768;28;20121;-67
2021/10/25 07:11:44;;;;;;;43.30;13.95;;;5.90;99.90;;;;;;5029720;28;20113;-66
2021/10/25 07:14:10;;;;;;;25.73;13.07;;;5.80;99.90;;;;;;5030503;28;20025;-66
2021/10/25 07:16:43;;;;;;;24.90;14.20;;;6.00;99.90;;;;;;5029462;28;20030;-66
2021/10/25 08:03:10;;;;;;;33.28;15.57;;;8.30;99.90;;;;;;5047191;28;20032;-66
2021/10/25 08:08:32;;;;;;;34.80;17.55;;;7.80;99.90;;;;;;5052297;28;20065;-67
2021/10/25 08:13:30;;;;;;;31.23;17.75;;;7.90;99.90;;;;;;5051019;28;20032;-67
2021/10/25 08:15:57;;;;;;;33.50;17.15;;;7.90;99.90;;;;;;5052585;28;20032;-67
2021/10/25 08:20:54;;;;;;;28.13;18.80;;;7.80;99.90;;;;;;5054057;28;20036;-67
2021/10/25 08:23:20;;;;;;;39.17;20.40;;;7.90;99.90;;;;;;5053178;28;20032;-66
2021/10/25 08:25:45;;;;;;;33.22;18.15;;;8.00;99.90;;;;;;5054104;28;20481;-66
2021/10/25 08:28:11;;;;;;;39.08;19.95;;;8.10;99.90;;;;;;5053084;28;20056;-65
2021/10/25 08:30:37;;;;;;;34.22;19.65;;;8.10;99.90;;;;;;5052925;28;20116;-64
2021/10/25 08:33:40;;;;;;;35.80;17.92;;;8.20;99.90;;;;;;5054408;28;20028;-65
2021/10/25 08:41:18;;;;;;;33.03;18.42;;;8.40;99.90;;;;;;5039743;28;20098;-62
2021/10/25 08:43:46;;;;;;;34.13;20.27;;;8.50;99.90;;;;;;5053531;28;20399;-63
2021/10/25 08:46:14;;;;;;;32.53;20.63;;;8.50;99.90;;;;;;5052855;28;20025;-64
2021/10/25 08:48:47;;;;;;;37.03;19.42;;;8.50;99.90;;;;;;5052298;28;20124;-64
2021/10/25 08:51:15;;;;;;;41.45;20.08;;;8.40;99.90;;;;;;5054147;28;20108;-62
2021/10/25 08:53:41;;;;;;;33.03;18.58;;;8.70;99.90;;;;;;5051902;28;20025;-64
2021/10/25 08:56:07;;;;;;;41.47;19.17;;;9.40;99.90;;;;;;5052535;28;20032;-64
2021/10/25 08:58:36;;;;;;;29.70;17.25;;;9.10;99.90;;;;;;5047936;28;20106;-64
2021/10/25 09:01:03;;;;;;;33.60;18.88;;;8.90;99.90;;;;;;5048651;28;20436;-63
2021/10/25 09:03:28;;;;;;;31.40;17.05;;;8.70;99.90;;;;;;5048942;28;20034;-64
2021/10/25 09:05:57;;;;;;;29.10;17.30;;;8.60;99.90;;;;;;5032556;28;20132;-64
2021/10/25 09:08:23;;;;;;;33.67;18.65;;;8.40;99.90;;;;;;5051910;28;20037;-63
2021/10/25 09:10:49;;;;;;;33.22;18.67;;;8.40;99.90;;;;;;5053241;28;20031;-64
2021/10/25 09:13:16;;;;;;;31.88;18.08;;;8.30;99.90;;;;;;5051339;28;20033;-65
2021/10/25 09:15:47;;;;;;;36.67;18.48;;;8.30;99.90;;;;;;5052936;28;20028;-63
2021/10/25 09:18:18;;;;;;;32.45;19.35;;;7.90;99.90;;;;;;5053612;28;20082;-64
2021/10/25 09:20:59;;;;;;;33.35;19.85;;;8.10;99.90;;;;;;5051704;28;20040;-64
2021/10/25 09:23:29;;;;;;;36.30;18.60;;;8.10;99.90;;;;;;5052227;28;20079;-64
2021/10/25 09:26:02;;;;;;;36.42;19.38;;;8.00;99.90;;;;;;5052986;28;20029;-63
2021/10/25 09:28:34;;;;;;;35.10;19.70;;;8.10;99.90;;;;;;5052156;28;20071;-63
2021/10/25 09:31:05;;;;;;;35.58;18.88;;;8.10;99.90;;;;;;5052689;28;20021;-65
2021/10/25 09:33:38;;;;;;;32.17;18.15;;;8.20;99.90;;;;;;5053338;28;20017;-64
2021/10/25 09:36:09;;;;;;;33.42;18.33;;;8.20;99.90;;;;;;5051904;28;20029;-63
2021/10/25 09:41:39;;;;;;;29.75;16.95;;;8.50;99.90;;;;;;5053116;28;20040;-62
2021/10/25 09:49:56;;;;;;;28.42;16.77;;;8.90;99.90;;;;;;5052263;28;20375;-63
2021/10/25 09:52:36;;;;;;;30.33;17.90;;;9.00;99.90;;;;;;5051512;28;20035;-64
2021/10/25 09:55:08;;;;;;;33.75;18.55;;;9.40;99.90;;;;;;5050442;28;20033;-65
2021/10/25 09:57:59;;;;;;;25.88;16.67;;;9.60;99.90;;;;;;5051332;28;20040;-64
2021/10/25 10:00:23;;;;;;;26.60;16.77;;;9.90;99.90;;;;;;5052277;28;20536;-64
2021/10/25 10:02:49;;;;;;;22.83;16.42;;;10.10;99.90;;;;;;5050987;28;20125;-66
2021/10/25 10:05:17;;;;;;;23.50;15.55;;;9.80;99.90;;;;;;5052832;28;20086;-65
2021/10/25 10:07:44;;;;;;;20.05;14.65;;;9.60;99.90;;;;;;5051861;28;20037;-64
2021/10/25 10:10:13;;;;;;;23.40;14.90;;;9.60;99.90;;;;;;5051353;28;20374;-63
2021/10/25 10:12:42;;;;;;;21.48;15.13;;;9.90;99.90;;;;;;5050744;28;20467;-64
2021/10/25 10:15:09;;;;;;;23.80;15.90;;;9.80;99.90;;;;;;5052592;28;20036;-64
2021/10/25 10:17:49;;;;;;;27.05;16.25;;;9.30;99.90;;;;;;5052343;28;20036;-64
2021/10/25 10:20:24;;;;;;;19.20;15.38;;;8.90;99.90;;;;;;5050958;28;20022;-64
2021/10/25 10:22:52;;;;;;;27.33;17.65;;;9.20;99.90;;;;;;5051386;28;20061;-65
2021/10/25 10:25:39;;;;;;;27.83;16.65;;;9.60;99.90;;;;;;5050579;28;20033;-65
2021/10/25 10:28:09;;;;;;;21.50;15.45;;;9.50;99.90;;;;;;5050149;28;20057;-65
2021/10/25 10:30:54;;;;;;;23.52;16.08;;;9.70;99.90;;;;;;5052165;28;20021;-64
2021/10/25 10:33:41;;;;;;;29.25;17.35;;;9.60;99.90;;;;;;5051973;28;20096;-63
2021/10/25 10:36:17;;;;;;;26.85;16.58;;;9.50;99.90;;;;;;5051316;28;20021;-66
2021/10/25 10:39:09;;;;;;;24.42;15.40;;;9.40;99.90;;;;;;5049980;28;20602;-78
2021/10/25 10:41:49;;;;;;;24.60;15.43;;;9.90;99.90;;;;;;5052020;28;20067;-64
2021/10/25 10:44:17;;;;;;;24.52;15.95;;;10.40;99.90;;;;;;5051838;28;20024;-64
2021/10/25 10:46:48;;;;;;;24.98;15.32;;;11.00;99.90;;;;;;5050405;28;20490;-64
2021/10/25 10:49:32;;;;;;;21.15;14.55;;;11.60;99.90;;;;;;5051565;28;20033;-63
2021/10/25 10:52:35;;;;;;;17.70;13.55;;;12.10;99.90;;;;;;5049896;28;20025;-65
2021/10/25 10:55:27;;;;;;;21.40;13.48;;;13.10;99.90;;;;;;5043550;28;20038;-64
2021/10/25 11:00:40;;;;;;;19.40;12.75;;;13.60;99.90;;;;;;5048853;28;20025;-65
2021/10/25 11:03:09;;;;;;;20.55;13.32;;;14.20;99.90;;;;;;5031266;28;20052;-64
2021/10/25 11:05:41;;;;;;;21.13;13.07;;;14.30;99.70;;;;;;5051130;28;20032;-66
2021/10/25 11:08:21;;;;;;;19.48;13.13;;;13.70;99.90;;;;;;5050589;28;20478;-66
2021/10/25 11:10:56;;;;;;;18.20;13.80;;;13.40;99.90;;;;;;5031762;28;20036;-65
2021/10/25 11:13:23;;;;;;;19.77;12.75;;;13.20;99.90;;;;;;5043451;28;20040;-65
2021/10/25 11:15:56;;;;;;;15.23;11.57;;;13.50;99.90;;;;;;5030569;28;20036;-72
2021/10/25 11:18:27;;;;;;;17.40;12.25;;;14.10;99.90;;;;;;5050466;28;20509;-65
2021/10/25 11:21:13;;;;;;;17.23;12.23;;;14.70;99.70;;;;;;5045566;28;20116;-65
2021/10/25 11:23:52;;;;;;;16.55;11.93;;;14.90;98.90;;;;;;5031372;28;20116;-65
2021/10/25 11:26:36;;;;;;;17.85;11.52;;;15.60;98.20;;;;;;5030234;28;20405;-66
2021/10/25 11:29:09;;;;;;;19.83;13.10;;;16.10;97.60;;;;;;5045547;28;20387;-66
2021/10/25 11:31:39;;;;;;;17.15;11.50;;;16.20;96.50;;;;;;5043514;28;20101;-65
2021/10/25 11:34:13;;;;;;;17.00;11.63;;;16.60;96.00;;;;;;5050045;28;20043;-65
2021/10/25 11:37:19;;;;;;;18.58;11.57;;;16.70;96.00;;;;;;5048350;28;20051;-64
2021/10/25 11:39:57;;;;;;;16.35;11.27;;;17.10;95.70;;;;;;5045026;28;20032;-65
2021/10/25 11:42:26;;;;;;;13.88;11.40;;;17.80;94.80;;;;;;5045871;28;20444;-65
2021/10/25 11:45:00;;;;;;;14.40;11.15;;;17.50;93.70;;;;;;5046065;28;20128;-64
2021/10/25 11:47:34;;;;;;;15.52;10.65;;;17.20;94.40;;;;;;5050743;28;20447;-69
2021/10/25 11:50:05;;;;;;;17.38;11.25;;;17.40;94.20;;;;;;5049446;28;20037;-67
2021/10/25 11:52:38;;;;;;;16.70;10.95;;;17.50;93.50;;;;;;5045766;28;20025;-66
2021/10/25 11:55:05;;;;;;;16.73;11.63;;;17.60;93.70;;;;;;5048097;28;20443;-65
2021/10/25 11:57:32;;;;;;;15.07;10.32;;;18.30;93.00;;;;;;5049833;28;20045;-65
2021/10/25 12:00:04;;;;;;;13.32;10.95;;;18.60;92.30;;;;;;5048671;28;20021;-65
2021/10/25 12:02:31;;;;;;;15.82;10.07;;;18.90;92.00;;;;;;5049969;28;20030;-65
2021/10/25 12:04:57;;;;;;;20.70;11.32;;;19.00;90.80;;;;;;5045703;28;20020;-66
2021/10/25 12:07:23;;;;;;;16.77;11.60;;;19.20;90.90;;;;;;5048101;28;20107;-66
2021/10/25 12:10:04;;;;;;;19.77;11.43;;;18.70;90.70;;;;;;5047624;28;20021;-67
2021/10/25 12:12:30;;;;;;;12.77;10.52;;;19.00;90.70;;;;;;5048671;28;20036;-65
2021/10/25 12:15:02;;;;;;;27.88;12.02;;;18.90;90.60;;;;;;5047582;28;20029;-65
2021/10/25 12:17:36;;;;;;;14.55;10.25;;;18.80;90.80;;;;;;5049959;28;20120;-66
2021/10/25 12:20:11;;;;;;;17.67;10.60;;;18.10;91.10;;;;;;5046026;28;20040;-66
2021/10/25 12:22:43;;;;;;;22.48;11.82;;;18.00;91.60;;;;;;5046039;28;20048;-64
2021/10/25 12:25:09;;;;;;;;;;;17.30;92.50;;;;;;5047894;28;20454;-66
2021/10/25 12:27:41;;;;;;;16.48;11.20;;;17.30;92.60;;;;;;5048052;28;19920;-70
2021/10/25 12:30:07;;;;;;;14.00;10.63;;;18.00;92.20;;;;;;5049324;28;20025;-66
2021/10/25 12:32:35;;;;;;;15.65;11.30;;;18.60;91.60;;;;;;5048333;28;20024;-65
2021/10/25 12:35:03;;;;;;;13.50;10.20;;;18.20;91.90;;;;;;5048899;28;20051;-66
2021/10/25 12:37:34;;;;;;;13.93;10.38;;;18.10;91.70;;;;;;5047121;28;20174;-65
2021/10/25 12:40:01;;;;;;;24.23;11.50;;;18.50;91.50;;;;;;5042658;28;20021;-65
2021/10/25 12:42:40;;;;;;;13.70;10.27;;;18.20;91.90;;;;;;5049666;28;20056;-65
2021/10/25 12:45:14;;;;;;;14.23;10.82;;;18.50;91.60;;;;;;5041488;28;20041;-68
2021/10/25 12:47:40;;;;;;;13.65;11.02;;;18.70;91.30;;;;;;5043675;28;20087;-66
2021/10/25 12:50:07;;;;;;;14.75;10.18;;;18.30;91.50;;;;;;5051946;28;20028;-66
2021/10/25 12:52:33;;;;;;;29.60;12.07;;;18.50;91.40;;;;;;5051573;28;20025;-65
2021/10/25 12:55:00;;;;;;;13.70;10.65;;;18.90;91.00;;;;;;5050837;28;20113;-66
2021/10/25 12:57:31;;;;;;;14.45;9.80;;;18.90;90.50;;;;;;5049254;28;20061;-65
2021/10/25 12:59:59;;;;;;;14.70;8.73;;;18.20;91.80;;;;;;5052771;28;20025;-67
2021/10/25 13:02:28;;;;;;;15.40;10.13;;;18.10;91.90;;;;;;5053019;28;20107;-65
2021/10/25 13:05:15;;;;;;;12.98;9.63;;;17.80;91.70;;;;;;5052530;28;20021;-65
2021/10/25 13:07:59;;;;;;;20.45;10.30;;;17.60;92.70;;;;;;5043722;28;20025;-65
2021/10/25 13:10:38;;;;;;;13.82;10.77;;;18.40;91.20;;;;;;5053199;28;20040;-66
2021/10/25 13:13:06;;;;;;;13.98;9.18;;;18.50;90.40;;;;;;5070754;28;20028;-74
2021/10/25 13:15:33;;;;;;;13.13;8.95;;;18.10;92.50;;;;;;5043460;28;20102;-74
2021/10/25 13:18:00;;;;;;;10.63;8.50;;;19.40;91.60;;;;;;5056238;28;20044;-65
2021/10/25 13:20:28;;;;;;;14.90;8.82;;;20.20;88.60;;;;;;5050228;28;20076;-66
2021/10/25 13:22:57;;;;;;;11.35;9.07;;;20.30;87.00;;;;;;5033075;28;20382;-66
2021/10/25 13:25:24;;;;;;;19.90;9.85;;;20.20;86.40;;;;;;5034002;28;20448;-66
2021/10/25 13:27:51;;;;;;;13.68;9.27;;;19.70;86.90;;;;;;5050112;28;20067;-70
2021/10/25 13:30:18;;;;;;;12.85;9.85;;;19.50;88.10;;;;;;5033970;28;20231;-66
2021/10/25 13:32:44;;;;;;;11.90;10.00;;;19.50;89.10;;;;;;5033936;28;20025;-65
2021/10/25 13:35:11;;;;;;;13.40;10.15;;;19.40;87.70;;;;;;5050033;28;20477;-66
2021/10/25 13:37:37;;;;;;;12.05;9.80;;;19.50;88.10;;;;;;5033842;28;20036;-66
2021/10/25 13:40:05;;;;;;;13.15;9.32;;;19.60;88.70;;;;;;5033107;28;20116;-66
2021/10/25 13:42:31;;;;;;;12.68;9.75;;;18.40;90.30;;;;;;5031478;28;20037;-66
2021/10/25 13:44:57;;;;;;;12.63;8.90;;;18.30;90.10;;;;;;5032569;28;20033;-66
2021/10/25 13:47:23;;;;;;;14.52;9.30;;;18.80;90.20;;;;;;5033075;28;20119;-66
2021/10/25 13:49:48;;;;;;;14.95;9.63;;;19.30;90.20;;;;;;5032632;28;20064;-65
2021/10/25 13:52:15;;;;;;;13.52;9.23;;;19.50;88.50;;;;;;5032377;28;20436;-66
2021/10/25 13:54:41;;;;;;;14.45;9.30;;;20.10;87.70;;;;;;5031362;28;20048;-65
2021/10/25 13:57:08;;;;;;;14.82;9.23;;;20.60;86.70;;;;;;5032172;28;20041;-66
2021/10/25 13:59:35;;;;;;;24.55;10.30;;;20.20;86.70;;;;;;5031130;28;20071;-66
2021/10/25 14:02:09;;;;;;;22.75;12.05;;;21.10;85.30;;;;;;5031962;28;20448;-66
2021/10/25 14:04:45;;;;;;;16.90;11.43;;;21.20;84.40;;;;;;5032788;28;20018;-66
2021/10/25 14:07:15;;;;;;;18.13;11.27;;;21.30;83.20;;;;;;5032244;28;20420;-66
2021/10/25 14:09:43;;;;;;;18.67;11.73;;;21.10;83.10;;;;;;5031460;28;20033;-66
2021/10/25 14:12:09;;;;;;;17.58;11.50;;;20.70;84.10;;;;;;5031852;28;20061;-66
2021/10/25 14:14:36;;;;;;;21.80;11.65;;;20.50;84.50;;;;;;5029600;28;20057;-66
2021/10/25 14:17:03;;;;;;;15.57;11.57;;;20.70;84.70;;;;;;5030294;28;20038;-66
2021/10/25 14:19:29;;;;;;;15.68;12.13;;;21.00;84.50;;;;;;5032578;28;20065;-66
2021/10/25 14:21:56;;;;;;;15.30;10.52;;;20.80;83.40;;;;;;5030350;28;20037;-65
2021/10/25 14:24:23;;;;;;;20.23;10.95;;;20.00;86.00;;;;;;5030989;28;20116;-67